Data for 02/25/2007

Time Sea-Level Adjusted Pressure Absolute Pressure Temperature Relative Humidity Dew Point   
(mb) (inHg) (mb) (inHg) (C) (F) (%) (C) (F)
00:05 1011 29.85 840 24.81 -4.7 23.6 71 -9.2 15.5
00:10 1011 29.85 840 24.81 -4.6 23.7 70 -9.2 15.4
00:15 1011 29.85 840 24.81 -4.6 23.8 71 -9.1 15.6
00:20 1011 29.85 840 24.81 -4.6 23.7 71 -9 15.8
00:25 1010 29.83 840 24.81 -4.8 23.4 73 -8.9 15.9
00:30 1010 29.83 840 24.81 -4.8 23.4 72 -9.1 15.6
00:35 1010 29.83 840 24.81 -4.7 23.5 71 -9.2 15.4
00:40 1010 29.83 840 24.81 -4.5 23.9 70 -9.2 15.4
00:45 1010 29.83 839 24.78 -4.3 24.2 69 -9.1 15.6
00:50 1010 29.83 839 24.78 -4.3 24.3 70 -8.9 15.9
00:55 1010 29.83 839 24.78 -4.4 24.2 70 -9 15.7
01:00 1010 29.83 839 24.78 -4.4 24.1 71 -8.9 16
01:05 1010 29.83 839 24.78 -4.5 23.9 72 -8.7 16.3
01:10 1010 29.83 839 24.78 -4.9 23.2 74 -8.8 16.1
01:15 1010 29.83 839 24.78 -4.9 23.2 73 -9 15.7
01:20 1010 29.83 839 24.78 -4.8 23.4 73 -8.9 16
01:25 1010 29.83 839 24.78 -4.8 23.4 72 -9 15.8
01:30 1010 29.83 839 24.78 -4.7 23.5 73 -8.9 16.1
01:35 1010 29.83 839 24.78 -4.8 23.4 72 -9 15.8
01:40 1010 29.83 839 24.78 -4.7 23.5 73 -8.9 16
01:45 1010 29.83 839 24.78 -4.7 23.6 74 -8.7 16.3
01:50 1010 29.83 839 24.78 -4.6 23.7 73 -8.8 16.1
01:55 1010 29.83 839 24.78 -4.5 24 72 -8.8 16.2
02:00 1010 29.83 839 24.78 -4.3 24.2 71 -8.8 16.1
02:05 1010 29.83 839 24.78 -4.4 24.2 71 -8.8 16.1
02:10 1009 29.8 839 24.78 -4.4 24.2 71 -8.8 16.2
02:15 1009 29.8 839 24.78 -4.4 24.1 72 -8.7 16.3
02:20 1009 29.8 839 24.78 -4.5 23.9 73 -8.7 16.3
02:25 1009 29.8 838 24.75 -4.5 23.9 72 -8.7 16.3
02:30 1009 29.8 838 24.75 -4.4 24 72 -8.8 16.2
02:35 1009 29.8 838 24.75 -4.4 24.1 73 -8.6 16.5
02:40 1009 29.8 838 24.75 -4.6 23.8 74 -8.5 16.7
02:45 1009 29.8 838 24.75 -4.7 23.6 75 -8.4 16.8
02:50 1009 29.8 838 24.75 -4.8 23.4 76 -8.4 16.8
02:55 1009 29.8 838 24.75 -4.7 23.6 74 -8.7 16.4
03:00 1009 29.8 838 24.75 -4.7 23.6 74 -8.6 16.6
03:05 1009 29.8 838 24.75 -4.9 23.3 76 -8.4 16.9
03:10 1009 29.8 838 24.75 -5 22.9 77 -8.5 16.6
03:15 1009 29.8 838 24.75 -5.1 22.9 76 -8.6 16.5
03:20 1009 29.8 838 24.75 -5 23 75 -8.8 16.1
03:25 1009 29.8 838 24.75 -4.9 23.1 74 -8.9 15.9
03:30 1009 29.8 838 24.75 -4.9 23.3 73 -8.9 15.9
03:35 1009 29.8 838 24.75 -4.8 23.3 73 -8.9 16
03:40 1009 29.8 838 24.75 -4.9 23.2 73 -8.9 15.9
03:45 1009 29.8 838 24.75 -4.9 23.2 73 -9.1 15.7
03:50 1008 29.77 838 24.75 -4.9 23.1 73 -9.1 15.7
03:55 1009 29.8 838 24.75 -5.1 22.9 73 -9.2 15.4
04:00 1008 29.77 838 24.75 -5.2 22.7 73 -9.2 15.4
04:05 1008 29.77 838 24.75 -5.5 22.1 75 -9.3 15.2
04:10 1008 29.77 838 24.75 -5.7 21.8 75 -9.4 15
04:15 1008 29.77 838 24.75 -5.8 21.6 76 -9.4 15
04:20 1008 29.77 838 24.75 -6.2 20.9 76 -9.7 14.5
04:25 1008 29.77 837 24.72 -6 21.3 75 -9.7 14.6
04:30 1008 29.77 837 24.72 -6.1 21 76 -9.7 14.5
04:35 1008 29.77 837 24.72 -6.1 20.9 75 -9.8 14.3
04:40 1008 29.77 837 24.72 -6.1 21.1 75 -9.9 14.2
04:45 1008 29.77 837 24.72 -6.2 20.9 75 -9.9 14.1
04:50 1008 29.77 837 24.72 -6.3 20.7 74 -10.1 13.8
04:55 1008 29.77 837 24.72 -6.2 20.9 74 -10.1 13.9
05:00 1008 29.77 837 24.72 -6.2 20.9 74 -10 13.9
05:05 1008 29.77 837 24.72 -6.3 20.6 74 -10.2 13.7
05:10 1008 29.77 837 24.72 -6.2 20.8 74 -10.2 13.6
05:15 1008 29.77 837 24.72 -6.3 20.6 74 -10.2 13.6
05:20 1008 29.77 837 24.72 -6 21.2 72 -10.2 13.6
05:25 1008 29.77 837 24.72 -5.6 21.9 70 -10.3 13.4
05:30 1008 29.77 837 24.72 -5.5 22.1 69 -10.3 13.5
05:35 1008 29.77 837 24.72 -5.6 22 70 -10.3 13.5
05:40 1008 29.77 837 24.72 -5.7 21.8 70 -10.3 13.4
05:45 1008 29.77 837 24.72 -5.7 21.7 69 -10.5 13.1
05:50 1008 29.77 837 24.72 -5.7 21.8 70 -10.4 13.3
05:55 1008 29.77 837 24.72 -5.7 21.8 70 -10.3 13.4
06:00 1008 29.77 837 24.72 -5.8 21.5 71 -10.4 13.4
06:05 1008 29.77 837 24.72 -5.7 21.8 69 -10.5 13.2
06:10 1008 29.77 837 24.72 -5.4 22.2 69 -10.2 13.6
06:15 1008 29.77 837 24.72 -5.4 22.3 67 -10.5 13
06:20 1008 29.77 837 24.72 -5.1 22.8 67 -10.4 13.3
06:25 1008 29.77 837 24.72 -5.2 22.7 67 -10.4 13.3
06:30 1007 29.74 837 24.72 -5.2 22.7 67 -10.3 13.4
06:35 1007 29.74 837 24.72 -5.4 22.2 68 -10.5 13.2
06:40 1007 29.74 837 24.72 -5.7 21.8 69 -10.5 13
06:45 1007 29.74 836 24.69 -5.7 21.7 69 -10.6 12.9
06:50 1007 29.74 836 24.69 -5.8 21.6 69 -10.7 12.8
06:55 1007 29.74 836 24.69 -5.8 21.6 69 -10.6 12.9
07:00 1007 29.74 836 24.69 -5.8 21.6 68 -10.7 12.7
07:05 1007 29.74 836 24.69 -5.8 21.6 68 -10.7 12.7
07:10 1007 29.74 836 24.69 -5.7 21.8 68 -10.7 12.7
07:15 1007 29.74 836 24.69 -5.6 21.9 67 -10.8 12.6
07:20 1007 29.74 836 24.69 -5.5 22.1 66 -10.9 12.4
07:25 1007 29.74 836 24.69 -5.4 22.3 66 -10.8 12.6
07:30 1007 29.74 836 24.69 -5.3 22.4 66 -10.7 12.8
07:35 1007 29.74 836 24.69 -5.4 22.3 67 -10.6 12.8
07:40 1007 29.74 836 24.69 -5.4 22.3 67 -10.6 12.9
07:45 1007 29.74 836 24.69 -5.6 22 68 -10.5 13.1
07:50 1007 29.74 836 24.69 -5.9 21.4 70 -10.6 12.9
07:55 1007 29.74 836 24.69 -5.9 21.4 70 -10.6 12.9
08:00 1007 29.74 836 24.69 -5.7 21.8 68 -10.6 12.9
08:05 1007 29.74 836 24.69 -5.3 22.4 68 -10.4 13.3
08:10 1007 29.74 836 24.69 -5.1 22.9 66 -10.5 13.1
08:15 1007 29.74 836 24.69 -5.1 22.8 68 -10.2 13.6
08:20 1007 29.74 836 24.69 -5.2 22.7 67 -10.4 13.4
08:25 1007 29.74 836 24.69 -4.7 23.6 64 -10.4 13.2
08:30 1007 29.74 836 24.69 -4.4 24 63 -10.4 13.3
08:35 1007 29.74 836 24.69 -3.8 25.1 61 -10.3 13.4
08:40 1007 29.74 836 24.69 -3.9 25 61 -10.3 13.5
08:45 1007 29.74 836 24.69 -3.5 25.7 60 -10.2 13.6
08:50 1007 29.74 836 24.69 -3.3 26.1 60 -10 14.1
08:55 1007 29.74 836 24.69 -3.7 25.4 65 -9.3 15.2
09:00 1007 29.74 836 24.69 -3.7 25.3 66 -9.1 15.6
09:05 1007 29.74 836 24.69 -2.9 26.7 64 -8.9 16.1
09:10 1007 29.74 836 24.69 -3 26.6 64 -8.8 16.1
09:15 1007 29.74 836 24.69 -2.9 26.8 61 -9.4 15.1
09:20 1007 29.74 836 24.69 -1.6 29.1 54 -9.8 14.4
09:25 1007 29.74 836 24.69 -0.8 30.5 52 -9.6 14.8
09:30 1006 29.71 836 24.69 -0.9 30.4 50 -9.9 14.1
09:35 1006 29.71 836 24.69 -0 32 49 -9.6 14.7
09:40 1006 29.71 836 24.69 -0.5 31.1 49 -9.9 14.2
09:45 1006 29.71 836 24.69 -0.7 30.8 49 -10 14
09:50 1006 29.71 836 24.69 -0.6 30.8 51 -9.6 14.6
09:55 1006 29.71 836 24.69 -0.9 30.4 53 -9.4 15.1
10:00 1006 29.71 836 24.69 -1.1 30 55 -9.1 15.5
10:05 1006 29.71 835 24.66 -0.8 30.5 53 -9.3 15.3
10:10 1006 29.71 835 24.66 -0.9 30.4 53 -9.3 15.2
10:15 1006 29.71 835 24.66 -0.6 30.9 51 -9.5 14.8
10:20 1006 29.71 835 24.66 -0.4 31.2 49 -9.8 14.4
10:25 1006 29.71 835 24.66 0.2 32.3 50 -9.1 15.6
10:30 1006 29.71 835 24.66 0.4 32.7 50 -8.8 16.1
10:35 1006 29.71 835 24.66 -0.5 31 54 -8.8 16.2
10:40 1006 29.71 835 24.66 -0.2 31.6 52 -9 15.9
10:45 1006 29.71 835 24.66 0.7 33.2 49 -8.9 16
10:50 1006 29.71 835 24.66 1.8 35.2 48 -8 17.6
10:55 1006 29.71 835 24.66 0.9 33.6 56 -6.9 19.6
11:00 1006 29.71 835 24.66 0 32 58 -7.2 19
11:05 1006 29.71 835 24.66 -0.6 30.9 60 -7.5 18.5
11:10 1005 29.68 835 24.66 -0.9 30.4 59 -8 17.6
11:15 1005 29.68 835 24.66 -0.3 31.4 54 -8.6 16.6
11:20 1005 29.68 834 24.63 1.4 34.4 48 -8.4 16.8
11:25 1005 29.68 834 24.63 -0 31.9 55 -7.9 17.7
11:30 1005 29.68 834 24.63 1.5 34.8 47 -8.6 16.6
11:35 1005 29.68 834 24.63 1.3 34.3 52 -7.5 18.5
11:40 1005 29.68 834 24.63 2 35.5 47 -8.2 17.2
11:45 1005 29.68 834 24.63 2.8 37 45 -7.9 17.7
11:50 1005 29.68 834 24.63 3.3 37.9 43 -8.1 17.3
11:55 1005 29.68 834 24.63 3.1 37.6 45 -7.6 18.4
12:00 1005 29.68 834 24.63 2.6 36.7 48 -7.4 18.6
12:05 1005 29.68 834 24.63 2.6 36.7 46 -8 17.6
12:10 1005 29.68 834 24.63 2.7 36.8 46 -7.9 17.7
12:15 1005 29.68 834 24.63 2.3 36.1 46 -8.1 17.4
12:20 1005 29.68 834 24.63 2.8 37 44 -8.5 16.8
12:25 1005 29.68 834 24.63 3 37.4 42 -8.7 16.4
12:30 1005 29.68 834 24.63 2.8 37.1 44 -8.2 17.2
12:35 1004 29.65 834 24.63 1.6 34.9 45 -9.2 15.4
12:40 1004 29.65 834 24.63 1.2 34.1 47 -8.9 16
12:45 1004 29.65 833 24.6 0.7 33.2 49 -8.9 16
12:50 1004 29.65 833 24.6 0.8 33.4 50 -8.4 16.9
12:55 1004 29.65 833 24.6 1.9 35.4 45 -8.8 16.2
13:00 1004 29.65 833 24.6 2.7 36.9 42 -9 15.8
13:05 1004 29.65 833 24.6 2.6 36.8 41 -9.2 15.4
13:10 1004 29.65 833 24.6 1.5 34.7 49 -8.2 17.3
13:15 1004 29.65 833 24.6 1.9 35.3 46 -8.7 16.4
13:20 1004 29.65 833 24.6 2.1 35.9 45 -8.6 16.5
13:25 1004 29.65 833 24.6 2.8 37.1 44 -8.1 17.3
13:30 1004 29.65 833 24.6 3 37.4 45 -7.9 17.7
13:35 1004 29.65 833 24.6 2.8 37.1 46 -7.5 18.4
13:40 1004 29.65 833 24.6 3.4 38.2 42 -8.2 17.2
13:45 1003 29.62 833 24.6 4.2 39.6 42 -7.5 18.4
13:50 1003 29.62 833 24.6 3.3 38 45 -7.4 18.8
13:55 1003 29.62 833 24.6 2.7 36.8 45 -8.2 17.2
14:00 1003 29.62 832 24.57 2.1 35.8 46 -8.3 17
14:05 1003 29.62 832 24.57 1.3 34.3 51 -7.9 17.8
14:10 1003 29.62 832 24.57 1.6 34.9 50 -7.6 18.2
14:15 1003 29.62 832 24.57 2.6 36.6 46 -7.8 17.9
14:20 1003 29.62 832 24.57 3.6 38.5 43 -7.9 17.7
14:25 1003 29.62 832 24.57 4.1 39.5 39 -8.6 16.5
14:30 1003 29.62 832 24.57 4.1 39.3 39 -8.7 16.4
14:35 1003 29.62 832 24.57 1.7 35 45 -9 15.8
14:40 1003 29.62 832 24.57 1.2 34.1 48 -8.6 16.6
14:45 1003 29.62 832 24.57 2 35.7 45 -8.6 16.6
14:50 1003 29.62 832 24.57 2.3 36.2 47 -7.8 18
14:55 1003 29.62 832 24.57 2.3 36.2 46 -8 17.5
15:00 1003 29.62 832 24.57 1.4 34.4 51 -7.6 18.3
15:05 1003 29.62 832 24.57 1.6 34.9 52 -7.1 19.1
15:10 1003 29.62 832 24.57 2 35.6 52 -6.8 19.7
15:15 1003 29.62 832 24.57 1.8 35.3 53 -6.7 20
15:20 1003 29.62 832 24.57 1.3 34.3 54 -7 19.4
15:25 1003 29.62 832 24.57 1.5 34.7 53 -7.2 19.1
15:30 1003 29.62 832 24.57 1.6 34.9 53 -7.1 19.3
15:35 1003 29.62 832 24.57 1.7 35.1 51 -7.4 18.7
15:40 1003 29.62 832 24.57 1.4 34.4 52 -7.3 18.8
15:45 1003 29.62 832 24.57 0.3 32.6 56 -7.5 18.4
15:50 1003 29.62 832 24.57 0.1 32.1 58 -7.3 18.8
15:55 1003 29.62 832 24.57 0.6 33 54 -7.6 18.3
16:00 1003 29.62 832 24.57 0.6 33.2 54 -7.6 18.3
16:05 1003 29.62 832 24.57 0.8 33.4 52 -8 17.7
16:10 1003 29.62 832 24.57 0.8 33.4 51 -8.3 17
16:15 1003 29.62 832 24.57 0.6 33.1 54 -7.6 18.2
16:20 1003 29.62 832 24.57 0.2 32.4 51 -8.8 16.1
16:25 1003 29.62 832 24.57 0 32.1 54 -8.3 17.1
16:30 1003 29.62 832 24.57 -0.2 31.7 56 -8 17.6
16:35 1003 29.62 832 24.57 -0 32 53 -8.5 16.7
16:40 1003 29.62 832 24.57 -0 31.9 54 -8.3 17.1
16:45 1003 29.62 832 24.57 -0.4 31.3 56 -8.2 17.2
16:50 1003 29.62 832 24.57 -0.1 31.7 54 -8.4 16.9
16:55 1003 29.62 832 24.57 0 32 53 -8.4 16.9
17:00 1003 29.62 833 24.6 0.1 32.2 52 -8.5 16.6
17:05 1003 29.62 833 24.6 0 32.1 54 -8.1 17.4
17:10 1003 29.62 833 24.6 0.1 32.2 54 -8.1 17.5
17:15 1003 29.62 833 24.6 -0.1 31.8 55 -8.2 17.2
17:20 1003 29.62 833 24.6 -0.5 31.2 56 -8.2 17.2
17:25 1003 29.62 833 24.6 -0.4 31.3 56 -8 17.5
17:30 1003 29.62 833 24.6 -0.3 31.4 56 -8 17.5
17:35 1003 29.62 833 24.6 -0.2 31.7 55 -8.1 17.5
17:40 1003 29.62 833 24.6 0 32.1 55 -8 17.5
17:45 1004 29.65 833 24.6 -0.2 31.6 59 -7.4 18.7
17:50 1004 29.65 833 24.6 -0.3 31.5 58 -7.6 18.4
17:55 1004 29.65 833 24.6 -0.5 31.1 58 -7.7 18.2
18:00 1004 29.65 833 24.6 -0.4 31.4 57 -7.9 17.8
18:05 1004 29.65 833 24.6 -0.6 31 57 -8 17.6
18:10 1004 29.65 833 24.6 -0.6 30.9 57 -8.1 17.5
18:15 1004 29.65 833 24.6 -0.7 30.7 60 -7.5 18.4
18:20 1004 29.65 833 24.6 -0.8 30.6 60 -7.7 18.2
18:25 1004 29.65 833 24.6 -0.8 30.6 60 -7.5 18.5
18:30 1004 29.65 833 24.6 -0.8 30.6 59 -7.7 18.2
18:35 1004 29.65 833 24.6 -0.9 30.4 60 -7.7 18.1
18:40 1004 29.65 833 24.6 -0.9 30.3 60 -7.8 17.9
18:45 1004 29.65 833 24.6 -0.9 30.3 59 -8 17.6
18:50 1004 29.65 833 24.6 -1.1 30.1 61 -7.7 18.1
18:55 1004 29.65 833 24.6 -1 30.2 60 -7.8 17.9
19:00 1004 29.65 833 24.6 -0.8 30.5 62 -7.2 19.1
19:05 1004 29.65 833 24.6 -0.9 30.4 63 -7 19.4
19:10 1004 29.65 833 24.6 -1 30.2 63 -7.2 19.1
19:15 1004 29.65 833 24.6 -1.1 30 61 -7.6 18.3
19:20 1004 29.65 833 24.6 -1.2 29.9 63 -7.4 18.7
19:25 1004 29.65 833 24.6 -1.2 29.9 62 -7.6 18.3
19:30 1004 29.65 833 24.6 -1.2 29.9 63 -7.3 18.8
19:35 1004 29.65 833 24.6 -1.2 29.8 64 -7.1 19.2
19:40 1004 29.65 833 24.6 -1.4 29.5 66 -6.9 19.6
19:45 1004 29.65 833 24.6 -1.5 29.4 67 -6.9 19.7
19:50 1004 29.65 833 24.6 -1.5 29.2 69 -6.5 20.3
19:55 1004 29.65 833 24.6 -1.6 29.1 70 -6.4 20.5
20:00 1004 29.65 833 24.6 -1.8 28.7 71 -6.3 20.6
20:05 1004 29.65 833 24.6 -1.9 28.6 72 -6.3 20.7
20:10 1004 29.65 833 24.6 -2 28.4 72 -6.3 20.6
20:15 1004 29.65 833 24.6 -2.2 28.1 74 -6.2 20.9
20:20 1004 29.65 833 24.6 -2.2 28 73 -6.4 20.5
20:25 1004 29.65 833 24.6 -2.3 27.9 72 -6.6 20.1
20:30 1004 29.65 833 24.6 -2.2 28.1 70 -6.9 19.6
20:35 1004 29.65 833 24.6 -2.2 28.1 71 -6.7 20
20:40 1004 29.65 833 24.6 -2.2 28 71 -6.8 19.8
20:45 1004 29.65 833 24.6 -2.2 28 72 -6.7 20
20:50 1004 29.65 833 24.6 -2.4 27.7 71 -6.9 19.6
20:55 1004 29.65 833 24.6 -2.4 27.8 71 -7 19.4
21:00 1004 29.65 833 24.6 -2.5 27.5 72 -6.9 19.6
21:05 1004 29.65 833 24.6 -2.6 27.3 72 -7 19.3
21:10 1004 29.65 833 24.6 -2.6 27.3 70 -7.2 19
21:15 1004 29.65 833 24.6 -2.6 27.4 71 -7.2 19.1
21:20 1004 29.65 833 24.6 -2.7 27.1 71 -7.2 19
21:25 1004 29.65 833 24.6 -2.8 26.9 71 -7.4 18.7
21:30 1004 29.65 834 24.63 -2.7 27.1 71 -7.3 18.8
21:35 1004 29.65 834 24.63 -2.7 27.2 70 -7.4 18.7
21:40 1004 29.65 834 24.63 -2.9 26.8 73 -7.1 19.1
21:45 1004 29.65 834 24.63 -3.5 25.8 75 -7.3 18.9
21:50 1004 29.65 834 24.63 -3.5 25.7 75 -7.4 18.7
21:55 1004 29.65 834 24.63 -3.5 25.6 75 -7.3 18.8
22:00 1004 29.65 834 24.63 -3.4 25.8 74 -7.5 18.6
22:05 1004 29.65 834 24.63 -3.2 26.2 73 -7.4 18.6
22:10 1004 29.65 834 24.63 -3 26.6 72 -7.3 18.8
22:15 1004 29.65 833 24.6 -2.9 26.9 73 -7.1 19.2
22:20 1004 29.65 833 24.6 -3 26.6 75 -6.9 19.6
22:25 1004 29.65 833 24.6 -3.2 26.3 76 -6.9 19.6
22:30 1004 29.65 833 24.6 -3.3 26.1 75 -7.1 19.3
22:35 1004 29.65 833 24.6 -3.2 26.2 76 -6.9 19.6
22:40 1004 29.65 833 24.6 -3.3 26.1 76 -6.9 19.5
22:45 1004 29.65 833 24.6 -3.4 26 76 -7 19.4
22:50 1004 29.65 834 24.63 -3.6 25.5 76 -7.2 19
22:55 1004 29.65 834 24.63 -3.6 25.6 74 -7.6 18.3
23:00 1004 29.65 834 24.63 -3.4 26 73 -7.5 18.5
23:05 1004 29.65 834 24.63 -3.2 26.2 72 -7.5 18.5
23:10 1004 29.65 834 24.63 -2.9 26.7 72 -7.4 18.7
23:15 1004 29.65 834 24.63 -2.9 26.7 72 -7.3 18.9
23:20 1004 29.65 834 24.63 -3.1 26.5 72 -7.4 18.7
23:25 1004 29.65 834 24.63 -3.2 26.3 73 -7.4 18.7
23:30 1004 29.65 834 24.63 -3.4 25.9 74 -7.5 18.5
23:35 1004 29.65 834 24.63 -3.4 25.9 73 -7.6 18.3
23:40 1005 29.68 834 24.63 -3.4 26 74 -7.4 18.7
23:45 1005 29.68 834 24.63 -3.4 25.8 74 -7.5 18.6
23:50 1005 29.68 834 24.63 -3.6 25.6 74 -7.5 18.5
23:55 1005 29.68 834 24.63 -3.7 25.3 75 -7.5 18.5
24:00 1005 29.68 834 24.63 -3.8 25.2 75 -7.5 18.4